Time;durP1;ratioP1;P1;durP2;ratioP2;P2;SDS_P1;SDS_P2;PMS_P1;PMS_P2;Temp;Humidity;BMP_temperature;BMP_pressure;BME280_temperature;BME280_humidity;BME280_pressure;Samples;Min_cycle;Max_cycle;Signal;HPM_P1;HPM_P2
2022/10/15 00:02:06;;;;;;;0.70;0.40;;;14.60;99.90;;;;;;5030285;28;20195;-76
2022/10/15 00:04:32;;;;;;;0.90;0.40;;;14.60;99.90;;;;;;5030147;28;20216;-77
2022/10/15 00:06:58;;;;;;;1.93;0.40;;;14.60;99.90;;;;;;5030184;28;20948;-76
2022/10/15 00:09:23;;;;;;;2.70;0.40;;;14.50;99.90;;;;;;5030118;28;20508;-76
2022/10/15 00:11:49;;;;;;;0.83;0.33;;;14.60;99.90;;;;;;5031186;28;20306;-75
2022/10/15 00:14:15;;;;;;;0.60;0.30;;;14.60;99.90;;;;;;5031312;28;20208;-77
2022/10/15 00:16:40;;;;;;;0.70;0.40;;;14.60;99.90;;;;;;5031327;28;20191;-77
2022/10/15 00:19:06;;;;;;;1.43;0.50;;;14.60;99.90;;;;;;5013678;28;20276;-77
2022/10/15 00:21:32;;;;;;;0.70;0.40;;;14.60;99.90;;;;;;5031372;28;20177;-76
2022/10/15 00:23:57;;;;;;;0.67;0.37;;;14.70;99.90;;;;;;5031738;28;20283;-77
2022/10/15 00:26:28;;;;;;;0.90;0.37;;;14.60;99.90;;;;;;5030021;28;20690;-75
2022/10/15 00:28:56;;;;;;;0.80;0.33;;;14.60;99.90;;;;;;5030298;28;20185;-77
2022/10/15 00:31:23;;;;;;;1.00;0.40;;;14.50;99.90;;;;;;5031869;28;20423;-77
2022/10/15 00:33:53;;;;;;;0.70;0.40;;;14.50;99.90;;;;;;5013648;28;20426;-77
2022/10/15 00:36:21;;;;;;;1.00;0.40;;;14.50;99.90;;;;;;5031293;28;20435;-78
2022/10/15 00:38:48;;;;;;;0.63;0.30;;;14.60;99.90;;;;;;5029181;28;20416;-77
2022/10/15 00:41:29;;;;;;;0.70;0.50;;;14.60;99.90;;;;;;5031538;28;20419;-76
2022/10/15 00:44:20;;;;;;;2.63;0.40;;;14.60;99.90;;;;;;5031396;28;20973;-77
2022/10/15 00:46:49;;;;;;;0.70;0.40;;;14.60;99.90;;;;;;5020264;28;20423;-78
2022/10/15 00:49:27;;;;;;;0.70;0.30;;;14.70;99.90;;;;;;5030723;28;20444;-78
2022/10/15 00:52:12;;;;;;;1.10;0.57;;;14.60;99.90;;;;;;5029459;28;20462;-77
2022/10/15 00:54:56;;;;;;;2.40;0.40;;;14.60;99.90;;;;;;5030762;28;20434;-77
2022/10/15 00:57:23;;;;;;;0.60;0.30;;;14.70;99.90;;;;;;5031164;28;20462;-79
2022/10/15 00:59:52;;;;;;;0.70;0.30;;;14.70;99.90;;;;;;5012788;28;20420;-79
2022/10/15 01:02:19;;;;;;;0.70;0.30;;;14.70;99.90;;;;;;5029245;28;20505;-78
2022/10/15 01:04:46;;;;;;;1.37;0.30;;;14.80;99.90;;;;;;5031284;28;21008;-77
2022/10/15 01:07:12;;;;;;;0.70;0.30;;;14.70;99.90;;;;;;5031527;28;20411;-77
2022/10/15 01:09:41;;;;;;;0.63;0.30;;;14.80;99.90;;;;;;5013742;28;20489;-77
2022/10/15 01:12:34;;;;;;;2.40;0.63;;;14.80;99.90;;;;;;5031858;28;20200;-77
2022/10/15 01:15:34;;;;;;;3.73;0.40;;;14.90;99.90;;;;;;5014273;28;20517;-76
2022/10/15 01:18:17;;;;;;;0.70;0.40;;;14.90;99.90;;;;;;5030457;28;20431;-77
2022/10/15 01:21:31;;;;;;;1.10;0.40;;;14.80;99.90;;;;;;5031254;28;20502;-77
2022/10/15 01:24:21;;;;;;;0.70;0.40;;;14.90;99.90;;;;;;5031081;28;20419;-78
2022/10/15 01:26:59;;;;;;;0.80;0.30;;;14.90;99.90;;;;;;5029301;28;20994;-78
2022/10/15 01:29:37;;;;;;;2.30;0.40;;;14.80;99.90;;;;;;5030575;28;20818;-78
2022/10/15 01:32:24;;;;;;;0.60;0.30;;;14.80;99.90;;;;;;5030520;28;20550;-78
2022/10/15 01:34:59;;;;;;;0.70;0.40;;;14.80;99.90;;;;;;5028616;28;20458;-77
2022/10/15 01:37:42;;;;;;;0.70;0.40;;;14.80;99.90;;;;;;5031384;28;20445;-77
2022/10/15 01:40:33;;;;;;;0.60;0.30;;;14.90;99.90;;;;;;5031123;28;20854;-77
2022/10/15 01:43:01;;;;;;;3.37;0.40;;;14.90;99.90;;;;;;5030424;28;20530;-76
2022/10/15 01:45:39;;;;;;;0.70;0.40;;;14.90;99.90;;;;;;5030359;28;20439;-77
2022/10/15 01:48:08;;;;;;;1.03;0.30;;;15.00;99.90;;;;;;5030107;28;20418;-78
2022/10/15 01:50:40;;;;;;;1.00;0.40;;;15.00;99.90;;;;;;5012294;28;20796;-78
2022/10/15 01:53:07;;;;;;;1.27;0.40;;;15.00;99.90;;;;;;5029273;28;20471;-78
2022/10/15 01:55:35;;;;;;;0.60;0.30;;;15.00;99.90;;;;;;5029228;28;20448;-77
2022/10/15 01:58:02;;;;;;;0.87;0.30;;;15.00;99.90;;;;;;5030446;28;20909;-78
2022/10/15 02:00:28;;;;;;;0.73;0.40;;;15.00;99.90;;;;;;5028652;28;20925;-77
2022/10/15 02:03:01;;;;;;;1.33;0.40;;;15.00;99.90;;;;;;5029898;28;20426;-77
2022/10/15 02:05:38;;;;;;;1.37;0.40;;;15.00;99.90;;;;;;5028963;28;20209;-77
2022/10/15 02:08:26;;;;;;;0.63;0.30;;;15.00;99.90;;;;;;5028766;28;20424;-78
2022/10/15 02:10:58;;;;;;;0.70;0.30;;;15.10;99.90;;;;;;5028003;28;20427;-77
2022/10/15 02:13:34;;;;;;;0.70;0.40;;;15.20;99.90;;;;;;5027558;28;20471;-78
2022/10/15 02:16:26;;;;;;;1.13;0.40;;;15.20;99.90;;;;;;5030288;28;20430;-77
2022/10/15 02:19:30;;;;;;;1.00;0.30;;;15.30;99.90;;;;;;5027675;28;20435;-77
2022/10/15 02:22:22;;;;;;;1.80;0.30;;;15.30;99.90;;;;;;5012408;28;20458;-77
2022/10/15 02:24:57;;;;;;;0.60;0.30;;;15.30;99.90;;;;;;5021839;28;20479;-77
2022/10/15 02:27:25;;;;;;;1.03;0.40;;;15.40;99.90;;;;;;5030993;28;20420;-77
2022/10/15 02:29:52;;;;;;;1.73;0.30;;;15.40;99.90;;;;;;5030264;28;20423;-77
2022/10/15 02:32:20;;;;;;;4.10;0.40;;;15.40;99.90;;;;;;5030364;28;20467;-77
2022/10/15 02:34:47;;;;;;;0.70;0.30;;;15.40;99.90;;;;;;5030724;28;20459;-77
2022/10/15 02:37:14;;;;;;;0.80;0.30;;;15.40;99.90;;;;;;5030779;28;20459;-77
2022/10/15 02:39:39;;;;;;;1.37;0.40;;;15.40;99.90;;;;;;5030664;28;20427;-77
2022/10/15 02:42:05;;;;;;;0.60;0.30;;;15.40;99.90;;;;;;5028258;28;20559;-77
2022/10/15 02:44:31;;;;;;;0.70;0.40;;;15.40;99.90;;;;;;5029772;28;20208;-77
2022/10/15 02:46:58;;;;;;;0.70;0.30;;;15.50;99.90;;;;;;5030344;28;20568;-77
2022/10/15 02:49:24;;;;;;;3.03;0.37;;;15.50;99.90;;;;;;5030165;28;20189;-77
2022/10/15 02:51:50;;;;;;;1.67;0.30;;;15.50;99.90;;;;;;5029064;28;20470;-77
2022/10/15 02:54:15;;;;;;;0.67;0.30;;;15.50;99.90;;;;;;5012102;28;20807;-78
2022/10/15 02:56:41;;;;;;;0.70;0.40;;;15.50;99.90;;;;;;5028801;28;20227;-77
2022/10/15 02:59:07;;;;;;;2.13;0.30;;;15.50;99.90;;;;;;5029579;28;20273;-77
2022/10/15 03:01:33;;;;;;;0.67;0.30;;;15.60;99.90;;;;;;5029887;28;20323;-77
2022/10/15 03:03:59;;;;;;;1.93;0.30;;;15.60;99.90;;;;;;5034389;28;20190;-79
2022/10/15 03:06:25;;;;;;;0.60;0.30;;;15.60;99.90;;;;;;5032638;28;20583;-77
2022/10/15 03:08:50;;;;;;;0.60;0.30;;;15.50;99.90;;;;;;5031901;28;20509;-77
2022/10/15 03:11:16;;;;;;;0.70;0.40;;;15.60;99.90;;;;;;5032426;28;20186;-77
2022/10/15 03:13:42;;;;;;;0.70;0.30;;;15.60;99.90;;;;;;5033056;28;20220;-78
2022/10/15 03:16:09;;;;;;;0.60;0.30;;;15.50;99.90;;;;;;5033894;28;20192;-77
2022/10/15 03:18:35;;;;;;;4.77;0.33;;;15.50;99.90;;;;;;5034267;28;20694;-77
2022/10/15 03:21:01;;;;;;;1.13;0.33;;;15.60;99.90;;;;;;5032594;28;20463;-77
2022/10/15 03:23:27;;;;;;;0.60;0.37;;;15.60;99.90;;;;;;5016511;28;20420;-78
2022/10/15 03:25:53;;;;;;;0.80;0.40;;;15.60;99.90;;;;;;5034055;28;20208;-78
2022/10/15 03:28:19;;;;;;;1.63;0.90;;;15.60;99.90;;;;;;5033445;28;20422;-77
2022/10/15 03:30:45;;;;;;;1.00;0.30;;;15.50;99.90;;;;;;5031847;28;20193;-78
2022/10/15 03:33:11;;;;;;;0.67;0.40;;;15.50;99.90;;;;;;5033116;28;20875;-77
2022/10/15 03:35:37;;;;;;;0.60;0.30;;;15.60;99.90;;;;;;5031674;28;20201;-77
2022/10/15 03:38:04;;;;;;;0.80;0.30;;;15.50;99.90;;;;;;5031589;28;20424;-78
2022/10/15 03:40:29;;;;;;;0.80;0.30;;;15.50;99.90;;;;;;5031486;28;20518;-76
2022/10/15 03:42:55;;;;;;;2.00;0.50;;;15.50;99.90;;;;;;5033036;28;20970;-77
2022/10/15 03:45:21;;;;;;;2.30;0.50;;;15.50;99.90;;;;;;5031242;28;20728;-76
2022/10/15 03:47:47;;;;;;;0.93;0.40;;;15.40;99.90;;;;;;5031558;28;20182;-76
2022/10/15 03:50:13;;;;;;;0.70;0.30;;;15.40;99.90;;;;;;5033151;28;20422;-78
2022/10/15 03:52:39;;;;;;;1.60;0.50;;;15.50;99.90;;;;;;5032386;28;20213;-77
2022/10/15 03:55:06;;;;;;;1.87;0.40;;;15.40;99.90;;;;;;5032931;28;20207;-77
2022/10/15 03:57:31;;;;;;;2.43;0.40;;;15.40;99.90;;;;;;5031767;28;20438;-78
2022/10/15 03:59:57;;;;;;;0.70;0.40;;;15.40;99.90;;;;;;5031915;28;20446;-77
2022/10/15 04:02:23;;;;;;;1.97;0.47;;;15.40;99.90;;;;;;5015844;28;20185;-78
2022/10/15 04:04:53;;;;;;;0.70;0.40;;;15.40;99.90;;;;;;5032740;28;20900;-77
2022/10/15 04:07:19;;;;;;;0.63;0.40;;;15.40;99.90;;;;;;5031168;28;20423;-77
2022/10/15 04:09:45;;;;;;;3.80;0.40;;;15.40;99.90;;;;;;5031464;28;21035;-77
2022/10/15 04:12:11;;;;;;;1.23;0.50;;;15.40;99.90;;;;;;5031353;28;20467;-77
2022/10/15 04:14:37;;;;;;;0.80;0.40;;;15.40;99.90;;;;;;5032627;28;20436;-77
2022/10/15 04:17:02;;;;;;;2.77;0.43;;;15.30;99.90;;;;;;5031478;28;20252;-77
2022/10/15 04:19:29;;;;;;;0.80;0.40;;;15.40;99.90;;;;;;5033289;28;20201;-77
2022/10/15 04:21:55;;;;;;;2.63;0.47;;;15.40;99.90;;;;;;5033243;28;20228;-76
2022/10/15 04:24:20;;;;;;;4.83;0.47;;;15.40;99.90;;;;;;5031524;28;20419;-77
2022/10/15 04:26:46;;;;;;;0.70;0.40;;;15.40;99.90;;;;;;5031789;28;20185;-76
2022/10/15 04:29:11;;;;;;;0.70;0.40;;;15.30;99.90;;;;;;5031779;28;20618;-77
2022/10/15 04:31:37;;;;;;;0.70;0.40;;;15.30;99.90;;;;;;5030702;28;20201;-77
2022/10/15 04:34:03;;;;;;;0.70;0.40;;;15.30;99.90;;;;;;5032178;28;20181;-77
2022/10/15 04:36:29;;;;;;;0.70;0.40;;;15.30;99.90;;;;;;5013758;28;20196;-76
2022/10/15 04:38:54;;;;;;;1.53;0.53;;;15.40;99.90;;;;;;5030592;28;20435;-77
2022/10/15 04:41:20;;;;;;;0.70;0.40;;;15.40;99.90;;;;;;5014468;28;20185;-76
2022/10/15 04:43:46;;;;;;;0.80;0.40;;;15.30;99.90;;;;;;5030568;28;20752;-77
2022/10/15 04:46:12;;;;;;;0.60;0.30;;;15.30;99.90;;;;;;5032218;28;20535;-77
2022/10/15 04:48:38;;;;;;;0.90;0.40;;;15.30;99.90;;;;;;5032498;28;20181;-78
2022/10/15 04:51:05;;;;;;;0.80;0.40;;;15.40;99.90;;;;;;5032991;28;20781;-79
2022/10/15 04:53:31;;;;;;;0.70;0.40;;;15.40;99.90;;;;;;5014609;28;20475;-80
2022/10/15 04:56:02;;;;;;;0.77;0.40;;;15.40;99.90;;;;;;5031887;28;20435;-79
2022/10/15 04:58:32;;;;;;;0.70;0.40;;;15.40;99.90;;;;;;5030401;28;20433;-79
2022/10/15 05:01:10;;;;;;;0.80;0.40;;;15.40;99.90;;;;;;5031654;28;20458;-78
2022/10/15 05:03:37;;;;;;;0.90;0.40;;;15.30;99.90;;;;;;5013886;28;20430;-78
2022/10/15 05:06:05;;;;;;;0.60;0.33;;;15.30;99.90;;;;;;5032393;28;20439;-77
2022/10/15 05:08:33;;;;;;;0.70;0.40;;;15.40;99.90;;;;;;5030820;28;20428;-77
2022/10/15 05:11:10;;;;;;;1.73;0.40;;;15.40;99.90;;;;;;5034957;28;20431;-78
2022/10/15 05:13:36;;;;;;;0.90;0.50;;;15.40;99.90;;;;;;5041536;28;20468;-77
2022/10/15 05:16:22;;;;;;;0.80;0.40;;;15.40;99.90;;;;;;5032887;28;20487;-77
2022/10/15 05:18:50;;;;;;;0.70;0.40;;;15.40;99.90;;;;;;5036643;28;20181;-78
2022/10/15 05:21:17;;;;;;;0.90;0.40;;;15.40;99.90;;;;;;5052411;28;20416;-77
2022/10/15 05:23:43;;;;;;;0.70;0.40;;;15.40;99.90;;;;;;5052198;28;20900;-77
2022/10/15 05:26:15;;;;;;;6.43;0.40;;;15.30;99.90;;;;;;5037062;28;20447;-77
2022/10/15 05:28:40;;;;;;;2.50;0.50;;;15.40;99.90;;;;;;5032947;28;20422;-77
2022/10/15 05:31:09;;;;;;;0.60;0.30;;;15.40;99.90;;;;;;5034415;28;20419;-76
2022/10/15 05:33:35;;;;;;;1.47;0.40;;;15.40;99.90;;;;;;5013844;28;20501;-78
2022/10/15 05:36:30;;;;;;;1.10;0.50;;;15.40;99.90;;;;;;5030081;28;20435;-77
2022/10/15 05:39:01;;;;;;;2.13;0.40;;;15.40;99.90;;;;;;5026795;28;20432;-76
2022/10/15 05:41:27;;;;;;;0.70;0.40;;;15.40;99.90;;;;;;5031510;28;20555;-77
2022/10/15 05:43:55;;;;;;;2.90;0.57;;;15.40;99.90;;;;;;5029056;28;20427;-76
2022/10/15 05:46:22;;;;;;;0.70;0.43;;;15.40;99.90;;;;;;5030123;28;21290;-77
2022/10/15 05:48:49;;;;;;;0.70;0.30;;;15.40;99.90;;;;;;5028973;28;20936;-78
2022/10/15 05:51:15;;;;;;;0.90;0.60;;;15.40;99.90;;;;;;5030082;28;21146;-77
2022/10/15 05:53:42;;;;;;;0.70;0.40;;;15.40;99.90;;;;;;5030064;28;20455;-77
2022/10/15 05:56:08;;;;;;;1.13;0.50;;;15.30;99.90;;;;;;5030101;28;20435;-77
2022/10/15 05:58:35;;;;;;;1.33;0.50;;;15.40;99.90;;;;;;5029720;28;20943;-78
2022/10/15 06:01:02;;;;;;;8.33;0.40;;;15.40;99.90;;;;;;5028588;28;20531;-76
2022/10/15 06:03:28;;;;;;;1.90;0.57;;;15.40;99.90;;;;;;5028825;28;20793;-78
2022/10/15 06:05:54;;;;;;;0.70;0.40;;;15.40;99.90;;;;;;5030318;28;20449;-78
2022/10/15 06:08:20;;;;;;;0.70;0.40;;;15.40;99.90;;;;;;5029152;28;20423;-77
2022/10/15 06:10:46;;;;;;;1.07;0.40;;;15.40;99.90;;;;;;5012829;28;20220;-77
2022/10/15 06:13:13;;;;;;;0.73;0.40;;;15.40;99.90;;;;;;5030076;28;20471;-78
2022/10/15 06:15:44;;;;;;;0.77;0.50;;;15.40;99.90;;;;;;5030110;28;20455;-78
2022/10/15 06:18:14;;;;;;;0.80;0.43;;;15.40;99.90;;;;;;5029877;28;20420;-77
2022/10/15 06:20:41;;;;;;;2.30;0.50;;;15.40;99.90;;;;;;5029707;28;20432;-77
2022/10/15 06:23:06;;;;;;;0.70;0.40;;;15.40;99.90;;;;;;5029431;28;20428;-76
2022/10/15 06:25:32;;;;;;;0.70;0.40;;;15.40;99.90;;;;;;5027865;28;20450;-78
2022/10/15 06:28:03;;;;;;;1.83;0.47;;;15.40;99.90;;;;;;5029410;28;20216;-78
2022/10/15 06:30:29;;;;;;;0.70;0.43;;;15.30;99.90;;;;;;5029686;28;20940;-76
2022/10/15 06:32:55;;;;;;;0.70;0.40;;;15.30;99.90;;;;;;5028251;28;20483;-78
2022/10/15 06:35:22;;;;;;;1.10;0.40;;;15.30;99.90;;;;;;5029175;28;20890;-78
2022/10/15 06:37:48;;;;;;;1.33;0.40;;;15.30;99.90;;;;;;5028289;28;20788;-77
2022/10/15 06:40:14;;;;;;;0.70;0.40;;;15.30;99.90;;;;;;5029491;28;20430;-79
2022/10/15 06:42:40;;;;;;;0.90;0.40;;;15.20;99.90;;;;;;5029477;28;20721;-77
2022/10/15 06:45:07;;;;;;;1.03;0.60;;;15.20;99.90;;;;;;5029103;28;20431;-77
2022/10/15 06:47:33;;;;;;;1.77;0.40;;;15.20;99.90;;;;;;5011498;28;20433;-78
2022/10/15 06:49:59;;;;;;;2.20;0.53;;;15.30;99.90;;;;;;5029103;28;20451;-77
2022/10/15 06:52:25;;;;;;;2.20;0.50;;;15.30;99.90;;;;;;5028886;28;20483;-77
2022/10/15 06:54:51;;;;;;;0.70;0.47;;;15.30;99.90;;;;;;5028074;28;21011;-78
2022/10/15 06:57:16;;;;;;;3.23;0.50;;;15.30;99.90;;;;;;5010915;28;20196;-77
2022/10/15 06:59:42;;;;;;;1.10;0.50;;;15.40;99.90;;;;;;5026604;28;20537;-80
2022/10/15 07:02:12;;;;;;;0.70;0.40;;;15.40;99.90;;;;;;5026395;28;20238;-76
2022/10/15 07:04:38;;;;;;;1.67;0.60;;;15.40;99.90;;;;;;5026513;28;20212;-77
2022/10/15 07:07:04;;;;;;;0.97;0.50;;;15.40;99.90;;;;;;5027892;28;20842;-76
2022/10/15 07:09:30;;;;;;;0.87;0.37;;;15.50;99.90;;;;;;5027938;28;20432;-77
2022/10/15 07:11:56;;;;;;;0.70;0.40;;;15.50;99.90;;;;;;5027891;28;20212;-76
2022/10/15 07:14:21;;;;;;;1.47;0.40;;;15.50;99.90;;;;;;5026825;28;20185;-77
2022/10/15 07:16:47;;;;;;;4.87;0.40;;;15.60;99.90;;;;;;5027682;28;20693;-77
2022/10/15 07:19:13;;;;;;;0.80;0.50;;;15.60;99.90;;;;;;5027810;28;20185;-77
2022/10/15 07:21:38;;;;;;;0.80;0.50;;;15.60;99.90;;;;;;5027743;28;20176;-77
2022/10/15 07:24:04;;;;;;;0.70;0.40;;;15.60;99.90;;;;;;5025921;28;20538;-77
2022/10/15 07:26:30;;;;;;;4.00;1.00;;;15.70;99.90;;;;;;5027643;28;20197;-78
2022/10/15 07:28:56;;;;;;;0.70;0.40;;;15.70;99.90;;;;;;5027268;28;20442;-79
2022/10/15 07:31:22;;;;;;;0.87;0.40;;;15.60;99.90;;;;;;5027889;28;20183;-78
2022/10/15 07:33:48;;;;;;;0.60;0.30;;;15.70;99.90;;;;;;5026387;28;20562;-77
2022/10/15 07:36:14;;;;;;;1.47;0.90;;;15.70;99.90;;;;;;5027208;28;20432;-77
2022/10/15 07:38:40;;;;;;;0.70;0.40;;;15.70;99.90;;;;;;5025804;28;20186;-78
2022/10/15 07:41:08;;;;;;;0.67;0.40;;;15.70;99.90;;;;;;5027311;28;20839;-78
2022/10/15 07:43:34;;;;;;;0.70;0.30;;;15.70;99.90;;;;;;5027176;28;20419;-76
2022/10/15 07:46:00;;;;;;;0.70;0.30;;;15.70;99.90;;;;;;5025968;28;20506;-77
2022/10/15 07:48:25;;;;;;;0.70;0.30;;;15.70;99.90;;;;;;5029889;28;20573;-78
2022/10/15 07:51:00;;;;;;;0.70;0.40;;;15.60;99.90;;;;;;5029748;28;20459;-78
2022/10/15 07:53:26;;;;;;;0.60;0.30;;;15.60;99.90;;;;;;5013779;28;20221;-78
2022/10/15 07:55:52;;;;;;;2.10;0.30;;;15.60;99.90;;;;;;5030842;28;20439;-77
2022/10/15 07:58:18;;;;;;;0.70;0.40;;;15.60;99.90;;;;;;5031169;28;20436;-77
2022/10/15 08:00:44;;;;;;;0.67;0.30;;;15.60;99.90;;;;;;5029748;28;20426;-77
2022/10/15 08:03:10;;;;;;;6.00;4.50;;;15.50;99.90;;;;;;5031199;28;20492;-78
2022/10/15 08:05:36;;;;;;;6.23;4.60;;;15.50;99.90;;;;;;5030283;28;20447;-77
2022/10/15 08:08:02;;;;;;;476.30;340.43;;;15.60;99.90;;;;;;5029462;28;20650;-78
2022/10/15 08:10:27;;;;;;;7.20;4.60;;;15.50;99.90;;;;;;5029509;28;20204;-77
2022/10/15 08:12:53;;;;;;;1.93;0.90;;;15.50;99.90;;;;;;5029658;28;20947;-77
2022/10/15 08:15:19;;;;;;;0.60;0.40;;;15.50;99.90;;;;;;5029699;28;20205;-77
2022/10/15 08:17:45;;;;;;;1.90;0.40;;;15.50;99.90;;;;;;5013184;28;20190;-79
2022/10/15 08:20:11;;;;;;;0.70;0.43;;;15.50;99.90;;;;;;5031170;28;20451;-77
2022/10/15 08:22:36;;;;;;;0.67;0.30;;;15.60;99.90;;;;;;5030599;28;20189;-77
2022/10/15 08:25:02;;;;;;;1.23;0.50;;;15.70;99.90;;;;;;5030576;28;21362;-79
2022/10/15 08:27:28;;;;;;;0.90;0.70;;;15.70;99.90;;;;;;5029589;28;20194;-77
2022/10/15 08:29:54;;;;;;;2.33;2.13;;;15.80;99.90;;;;;;5031046;28;20208;-77
2022/10/15 08:32:20;;;;;;;0.97;0.90;;;15.80;99.90;;;;;;5029130;28;21141;-77
2022/10/15 08:34:45;;;;;;;1.10;0.50;;;15.90;99.90;;;;;;5029413;28;20531;-80
2022/10/15 08:37:11;;;;;;;0.83;0.57;;;15.90;99.90;;;;;;5029258;28;20185;-78
2022/10/15 08:39:36;;;;;;;1.00;0.80;;;16.00;99.90;;;;;;5030652;28;20237;-79
2022/10/15 08:42:13;;;;;;;7.73;0.70;;;16.10;99.90;;;;;;5030875;28;20186;-78
2022/10/15 08:44:44;;;;;;;1.77;1.60;;;16.20;99.90;;;;;;5030385;28;20312;-77
2022/10/15 08:47:22;;;;;;;2.83;0.70;;;16.20;99.90;;;;;;5029286;28;20895;-79
2022/10/15 08:49:51;;;;;;;1.53;1.13;;;16.30;99.90;;;;;;5030463;28;21003;-78
2022/10/15 08:52:41;;;;;;;1.30;0.60;;;16.40;99.90;;;;;;5029202;28;20463;-78
2022/10/15 08:55:14;;;;;;;1.80;0.70;;;16.40;99.90;;;;;;5031050;28;20825;-76
2022/10/15 08:57:57;;;;;;;1.87;0.50;;;16.60;99.90;;;;;;5014710;28;20452;-79
2022/10/15 09:00:40;;;;;;;2.87;0.50;;;16.60;99.90;;;;;;5028278;28;20419;-77
2022/10/15 09:03:25;;;;;;;4.03;0.67;;;16.60;99.90;;;;;;5030790;28;20441;-80
2022/10/15 09:06:18;;;;;;;0.90;0.57;;;16.70;99.90;;;;;;5029251;28;20830;-78
2022/10/15 09:09:13;;;;;;;1.97;0.60;;;16.70;99.90;;;;;;5030454;28;20447;-77
2022/10/15 09:12:07;;;;;;;1.10;0.60;;;16.80;99.90;;;;;;5028498;28;20461;-78
2022/10/15 09:14:43;;;;;;;4.80;0.57;;;17.00;99.90;;;;;;5029465;28;20443;-77
2022/10/15 09:17:25;;;;;;;1.10;0.70;;;17.10;99.90;;;;;;5029244;28;20427;-76
2022/10/15 09:19:54;;;;;;;0.70;0.50;;;17.20;99.90;;;;;;5029706;28;20418;-79
2022/10/15 09:22:25;;;;;;;1.83;0.90;;;17.20;99.90;;;;;;5030116;28;20424;-76
2022/10/15 09:24:51;;;;;;;6.93;0.60;;;17.20;99.90;;;;;;5029455;28;20440;-76
2022/10/15 09:27:37;;;;;;;0.90;0.50;;;17.20;99.90;;;;;;5028215;28;20428;-76
2022/10/15 09:30:05;;;;;;;0.90;0.60;;;17.20;99.90;;;;;;5029581;28;20484;-76
2022/10/15 09:32:58;;;;;;;0.80;0.50;;;17.20;99.90;;;;;;5028026;28;20556;-79
2022/10/15 09:35:55;;;;;;;1.50;0.60;;;17.30;99.90;;;;;;5029123;28;20433;-78
2022/10/15 09:38:33;;;;;;;1.03;0.80;;;17.30;99.90;;;;;;5009730;28;20450;-77
2022/10/15 09:41:09;;;;;;;1.40;0.60;;;17.30;99.90;;;;;;5029386;28;20417;-78
2022/10/15 09:43:39;;;;;;;2.13;0.80;;;17.30;99.90;;;;;;5029484;28;20460;-79
2022/10/15 09:46:05;;;;;;;6.30;0.80;;;17.40;99.90;;;;;;5029418;28;20447;-77
2022/10/15 09:48:35;;;;;;;1.67;0.50;;;17.30;99.90;;;;;;5028758;28;20420;-76
2022/10/15 09:51:22;;;;;;;3.13;0.63;;;17.40;99.90;;;;;;5028003;28;20187;-78
2022/10/15 09:54:19;;;;;;;4.70;0.63;;;17.50;99.90;;;;;;5028870;28;20453;-78
2022/10/15 09:56:51;;;;;;;2.40;0.60;;;17.50;99.90;;;;;;5029051;28;20416;-77
2022/10/15 09:59:18;;;;;;;2.07;0.93;;;17.40;99.90;;;;;;5029367;28;20427;-77
2022/10/15 10:01:58;;;;;;;11.43;1.00;;;17.40;99.90;;;;;;5028865;28;20906;-75
2022/10/15 10:04:30;;;;;;;1.93;0.60;;;17.50;99.90;;;;;;5029527;28;20939;-76
2022/10/15 10:07:01;;;;;;;1.43;0.60;;;17.60;99.90;;;;;;5029344;28;20554;-76
2022/10/15 10:09:52;;;;;;;3.60;0.90;;;17.70;99.90;;;;;;5028239;28;20505;-78
2022/10/15 10:12:21;;;;;;;2.30;1.00;;;17.80;99.90;;;;;;5028690;28;20464;-77
2022/10/15 10:15:24;;;;;;;1.17;0.80;;;17.90;99.90;;;;;;5029886;28;20435;-78
2022/10/15 10:17:57;;;;;;;3.03;0.57;;;18.10;99.90;;;;;;5027979;28;20540;-77
2022/10/15 10:20:31;;;;;;;2.50;0.80;;;19.10;99.90;;;;;;5029253;28;20436;-76
2022/10/15 10:23:01;;;;;;;5.07;0.60;;;19.50;99.90;;;;;;5027227;28;20481;-76
2022/10/15 10:25:29;;;;;;;1.80;0.70;;;19.60;99.90;;;;;;5028521;28;20478;-76
2022/10/15 10:28:12;;;;;;;1.30;0.70;;;20.20;99.90;;;;;;5027394;28;20450;-76
2022/10/15 10:30:51;;;;;;;6.83;0.90;;;20.60;99.90;;;;;;5027494;28;20408;-76
2022/10/15 10:33:43;;;;;;;2.80;0.70;;;20.50;99.90;;;;;;5028778;28;20455;-76
2022/10/15 10:36:24;;;;;;;1.97;0.67;;;20.40;99.90;;;;;;5028044;28;20501;-77
2022/10/15 10:39:14;;;;;;;7.33;1.00;;;20.70;99.90;;;;;;5027351;28;20520;-76
2022/10/15 10:41:57;;;;;;;2.27;0.57;;;20.60;99.90;;;;;;5030723;28;20454;-78
2022/10/15 10:44:28;;;;;;;1.30;0.57;;;21.00;99.90;;;;;;5028640;28;20405;-76
2022/10/15 10:47:11;;;;;;;3.47;0.93;;;21.10;99.90;;;;;;5028869;28;20407;-76
2022/10/15 10:49:37;;;;;;;3.50;1.50;;;21.10;99.90;;;;;;5028405;28;20430;-76
2022/10/15 10:52:04;;;;;;;5.03;1.00;;;21.50;99.90;;;;;;5028617;28;20449;-78
2022/10/15 10:54:31;;;;;;;2.97;0.70;;;21.30;99.90;;;;;;5026887;28;20443;-76
2022/10/15 10:56:59;;;;;;;2.40;0.50;;;21.00;99.90;;;;;;5028072;28;20791;-79
2022/10/15 10:59:31;;;;;;;1.90;0.80;;;20.80;99.90;;;;;;5028548;28;21228;-77
2022/10/15 11:01:57;;;;;;;2.47;0.70;;;20.40;99.90;;;;;;5029116;28;20396;-80
2022/10/15 11:04:25;;;;;;;6.27;0.97;;;20.20;99.90;;;;;;5026834;28;20431;-76
2022/10/15 11:07:12;;;;;;;2.60;0.70;;;20.00;99.90;;;;;;5027033;28;20180;-78
2022/10/15 11:09:41;;;;;;;3.40;0.80;;;19.80;99.90;;;;;;5027815;28;20395;-77
2022/10/15 11:12:43;;;;;;;2.00;0.70;;;19.70;99.90;;;;;;5027917;28;20554;-76
2022/10/15 11:15:26;;;;;;;3.47;0.83;;;19.40;99.90;;;;;;5026843;28;20434;-78
2022/10/15 11:18:20;;;;;;;2.23;0.50;;;19.30;99.90;;;;;;5027952;28;20966;-77
2022/10/15 11:20:51;;;;;;;2.60;0.73;;;19.30;99.90;;;;;;5028364;28;20818;-75
2022/10/15 11:23:45;;;;;;;4.60;0.90;;;19.20;99.90;;;;;;5029748;28;20411;-80
2022/10/15 11:26:53;;;;;;;1.90;0.73;;;19.20;99.90;;;;;;5029987;28;20982;-77
2022/10/15 11:29:40;;;;;;;3.10;0.70;;;18.90;99.90;;;;;;5030740;28;20423;-77
2022/10/15 11:32:19;;;;;;;1.77;0.93;;;18.80;99.90;;;;;;5031633;28;20460;-77
2022/10/15 11:35:29;;;;;;;3.27;1.10;;;18.80;99.90;;;;;;5030193;28;20500;-76
2022/10/15 11:38:36;;;;;;;1.33;0.73;;;18.60;99.90;;;;;;5031300;28;20445;-76
2022/10/15 11:41:33;;;;;;;1.77;0.80;;;18.50;99.90;;;;;;5032412;28;20414;-79
2022/10/15 11:44:21;;;;;;;7.07;0.97;;;18.40;99.90;;;;;;5032072;28;20413;-77
2022/10/15 11:47:24;;;;;;;1.97;1.00;;;18.30;99.90;;;;;;5031578;28;20454;-77
2022/10/15 11:50:02;;;;;;;2.30;0.90;;;18.40;99.90;;;;;;5032085;28;20406;-78
2022/10/15 11:52:46;;;;;;;2.10;0.60;;;18.40;99.90;;;;;;5033299;28;20473;-76
2022/10/15 11:55:30;;;;;;;2.70;0.83;;;18.40;99.90;;;;;;5033569;28;20533;-77
2022/10/15 11:58:00;;;;;;;3.63;0.60;;;18.50;99.90;;;;;;5033588;28;20436;-76
2022/10/15 12:00:37;;;;;;;3.83;0.53;;;18.60;99.90;;;;;;5033808;28;20411;-79
2022/10/15 12:03:11;;;;;;;2.60;0.70;;;18.50;99.90;;;;;;5033760;28;20455;-77
2022/10/15 12:05:45;;;;;;;4.60;1.33;;;18.50;99.90;;;;;;5033207;28;20432;-77
2022/10/15 12:08:12;;;;;;;5.33;0.50;;;18.50;99.90;;;;;;5033530;28;20801;-77
2022/10/15 12:10:51;;;;;;;3.70;0.60;;;18.60;99.90;;;;;;5032812;28;20430;-77
2022/10/15 12:13:35;;;;;;;1.40;0.57;;;19.10;99.90;;;;;;5032522;28;20513;-78
2022/10/15 12:16:34;;;;;;;2.23;0.80;;;19.30;99.90;;;;;;5031749;28;20968;-77
2022/10/15 12:19:16;;;;;;;1.23;0.70;;;19.50;99.90;;;;;;5030730;28;20445;-76
2022/10/15 12:21:54;;;;;;;3.00;0.80;;;19.90;99.90;;;;;;5030376;28;20403;-78
2022/10/15 12:24:43;;;;;;;1.87;0.60;;;19.90;99.90;;;;;;5029956;28;20783;-78
2022/10/15 12:27:17;;;;;;;3.00;0.80;;;19.90;99.90;;;;;;5028523;28;20888;-78
2022/10/15 12:29:44;;;;;;;1.67;0.70;;;19.90;99.90;;;;;;5030372;28;20422;-78
2022/10/15 12:32:29;;;;;;;2.10;0.60;;;19.70;99.90;;;;;;5030441;28;20975;-78
2022/10/15 12:34:59;;;;;;;1.93;0.83;;;19.50;99.90;;;;;;5029743;28;20859;-77
2022/10/15 12:37:33;;;;;;;4.70;0.80;;;19.40;99.90;;;;;;5030229;28;20875;-77
2022/10/15 12:40:22;;;;;;;5.80;0.70;;;19.60;99.90;;;;;;5030016;28;20833;-77
2022/10/15 12:42:58;;;;;;;1.70;0.80;;;20.00;99.90;;;;;;5029782;28;20857;-77
2022/10/15 12:45:39;;;;;;;3.37;0.80;;;20.10;99.90;;;;;;5028250;28;20447;-77
2022/10/15 12:48:05;;;;;;;1.20;0.63;;;20.00;99.90;;;;;;5029788;28;20421;-77
2022/10/15 12:50:33;;;;;;;0.80;0.50;;;20.00;99.90;;;;;;5029733;28;20477;-76
2022/10/15 12:53:17;;;;;;;1.67;0.70;;;19.70;99.90;;;;;;5029609;28;20212;-76
2022/10/15 12:55:43;;;;;;;1.37;0.90;;;19.60;99.90;;;;;;5028113;28;20473;-78
2022/10/15 12:58:34;;;;;;;1.43;0.70;;;19.40;99.90;;;;;;5029816;28;20438;-78
2022/10/15 13:01:15;;;;;;;2.50;0.60;;;19.30;99.90;;;;;;5029541;28;20269;-79
2022/10/15 13:03:50;;;;;;;1.40;0.47;;;19.30;99.90;;;;;;5028998;28;20956;-77
2022/10/15 13:06:32;;;;;;;2.60;0.73;;;19.10;99.90;;;;;;5029320;28;20441;-77
2022/10/15 13:09:04;;;;;;;0.90;0.53;;;19.10;99.90;;;;;;5029562;28;20434;-77
2022/10/15 13:11:35;;;;;;;0.90;0.50;;;19.00;99.90;;;;;;5029637;28;20932;-77
2022/10/15 13:14:11;;;;;;;2.40;0.63;;;18.90;99.90;;;;;;5029603;28;20464;-78